createdAt,value
2023-02-17T00:01:23.894Z,101560.91
2023-02-17T00:03:51.479Z,101565.22
2023-02-17T00:06:19.707Z,101562.44
2023-02-17T00:08:46.691Z,101560.78
2023-02-17T00:11:14.310Z,101552.72
2023-02-17T00:13:41.402Z,101564.25
2023-02-17T00:16:09.995Z,101559.63
2023-02-17T00:18:37.005Z,101570.06
2023-02-17T00:21:07.228Z,101571.59
2023-02-17T00:23:34.084Z,101567.78
2023-02-17T00:26:00.934Z,101571.25
2023-02-17T00:28:28.072Z,101567.94
2023-02-17T00:30:55.032Z,101569.59
2023-02-17T00:33:22.083Z,101563.47
2023-02-17T00:35:48.959Z,101557.22
2023-02-17T00:38:15.832Z,101569.97
2023-02-17T00:40:42.874Z,101561.91
2023-02-17T00:43:09.795Z,101558.94
2023-02-17T00:45:36.809Z,101555.47
2023-02-17T00:48:03.756Z,101553.66
2023-02-17T00:50:30.597Z,101558.94
2023-02-17T00:52:57.440Z,101553.50
2023-02-17T00:55:24.286Z,101544.44
2023-02-17T00:57:51.229Z,101551.25
2023-02-17T01:00:18.347Z,101545.81
2023-02-17T01:02:45.176Z,101542.84
2023-02-17T01:05:12.036Z,101537.41
2023-02-17T01:07:39.048Z,101535.75
2023-02-17T01:10:06.448Z,101534.91
2023-02-17T01:12:33.317Z,101545.34
2023-02-17T01:15:00.374Z,101536.56
2023-02-17T01:17:27.580Z,101533.63
2023-02-17T01:19:54.411Z,101532.78
2023-02-17T01:22:21.397Z,101530.13
2023-02-17T01:24:48.301Z,101529.16
2023-02-17T01:27:15.442Z,101533.78
2023-02-17T01:29:43.590Z,101530.97
2023-02-17T01:32:10.454Z,101528.03
2023-02-17T01:34:37.904Z,101524.56
2023-02-17T01:37:04.777Z,101527.19
2023-02-17T01:39:31.654Z,101521.22
2023-02-17T01:41:58.510Z,101525.69
2023-02-17T01:44:26.256Z,101523.88
2023-02-17T01:46:54.193Z,101529.16
2023-02-17T01:49:25.895Z,101528.19
2023-02-17T01:51:54.956Z,101518.28
2023-02-17T01:54:27.068Z,101524.38
2023-02-17T01:56:55.487Z,101517.13
2023-02-17T01:59:22.744Z,101522.56
2023-02-17T02:01:50.844Z,101519.91
2023-02-17T02:04:19.369Z,101517.13
2023-02-17T02:06:46.384Z,101530.34
2023-02-17T02:09:17.079Z,101524.09
2023-02-17T02:11:43.968Z,101527.72
2023-02-17T02:14:11.684Z,101524.09
2023-02-17T02:16:41.545Z,101524.22
2023-02-17T02:19:11.444Z,101514.50
2023-02-17T02:21:41.647Z,101510.03
2023-02-17T02:24:11.686Z,101506.41
2023-02-17T02:26:41.567Z,101513.38
2023-02-17T02:29:11.486Z,101505.44
2023-02-17T02:31:39.760Z,101502.94
2023-02-17T02:34:09.285Z,101502.94
2023-02-17T02:36:38.674Z,101500.94
2023-02-17T02:39:11.099Z,101514.16
2023-02-17T02:41:41.344Z,101514.34
2023-02-17T02:44:09.777Z,101514.50
2023-02-17T02:46:36.688Z,101512.69
2023-02-17T02:49:05.089Z,101520.47
2023-02-17T02:51:33.258Z,101521.13
2023-02-17T02:54:03.440Z,101533.22
2023-02-17T02:56:36.987Z,101528.75
2023-02-17T02:59:06.942Z,101518.19
2023-02-17T03:01:40.545Z,101516.53
2023-02-17T03:04:10.421Z,101518.47
2023-02-17T03:06:41.509Z,101529.06
2023-02-17T03:09:11.247Z,101521.94
2023-02-17T03:11:38.284Z,101526.25
2023-02-17T03:14:07.812Z,101523.75
2023-02-17T03:16:35.505Z,101519.31
2023-02-17T03:19:02.414Z,101516.66
2023-02-17T03:21:42.070Z,101508.44
2023-02-17T03:24:09.493Z,101514.25
2023-02-17T03:26:36.528Z,101503.50
2023-02-17T03:29:03.422Z,101499.03
2023-02-17T03:31:31.032Z,101510.44
2023-02-17T03:33:58.567Z,101514.09
2023-02-17T03:36:25.447Z,101520.19
2023-02-17T03:38:52.327Z,101514.75
2023-02-17T03:41:19.191Z,101518.06
2023-02-17T03:43:45.994Z,101507.50
2023-02-17T03:46:13.553Z,101503.88
2023-02-17T03:48:40.530Z,101509.47
2023-02-17T03:51:10.485Z,101519.38
2023-02-17T03:53:37.347Z,101519.38
2023-02-17T03:56:04.732Z,101521.84
2023-02-17T03:58:31.922Z,101517.38
2023-02-17T04:00:58.823Z,101509.31
2023-02-17T04:03:25.872Z,101502.84
2023-02-17T04:05:52.726Z,101502.03
2023-02-17T04:08:19.543Z,101498.56
2023-02-17T04:10:46.545Z,101499.38
2023-02-17T04:13:13.447Z,101511.16
2023-02-17T04:15:40.266Z,101509.66
2023-02-17T04:18:07.113Z,101509.53
2023-02-17T04:20:34.206Z,101510.31
2023-02-17T04:23:01.112Z,101516.28
2023-02-17T04:25:27.981Z,101518.94
2023-02-17T04:27:54.841Z,101514.63
2023-02-17T04:30:21.914Z,101523.25
2023-02-17T04:32:48.768Z,101533.84
2023-02-17T04:35:15.740Z,101527.38
2023-02-17T04:37:42.617Z,101530.22
2023-02-17T04:40:10.719Z,101523.25
2023-02-17T04:42:37.883Z,101525.91
2023-02-17T04:45:05.727Z,101525.06
2023-02-17T04:47:32.547Z,101521.59
2023-02-17T04:49:59.434Z,101525.06
2023-02-17T04:52:26.508Z,101515.78
2023-02-17T04:54:53.344Z,101514.63
2023-02-17T04:57:20.221Z,101521.59
2023-02-17T04:59:47.082Z,101517.97
2023-02-17T05:02:13.903Z,101515.47
2023-02-17T05:04:40.869Z,101526.88
2023-02-17T05:07:07.731Z,101528.53
2023-02-17T05:09:34.697Z,101524.91
2023-02-17T05:12:03.254Z,101535.50
2023-02-17T05:14:30.109Z,101538.81
2023-02-17T05:16:56.972Z,101530.22
2023-02-17T05:19:23.836Z,101530.03
2023-02-17T05:21:51.736Z,101535.19
2023-02-17T05:24:18.577Z,101529.88
2023-02-17T05:26:45.589Z,101530.72
2023-02-17T05:29:12.420Z,101531.56
2023-02-17T05:31:39.560Z,101530.72
2023-02-17T05:34:06.425Z,101526.41
2023-02-17T05:36:33.294Z,101525.44
2023-02-17T05:39:00.252Z,101529.88
2023-02-17T05:41:27.173Z,101534.19
2023-02-17T05:43:54.004Z,101528.22
2023-02-17T05:46:20.988Z,101525.22
2023-02-17T05:48:48.852Z,101537.47
2023-02-17T05:51:17.541Z,101531.66
2023-02-17T05:53:44.694Z,101520.41
2023-02-17T05:56:11.684Z,101525.03
2023-02-17T05:58:38.591Z,101525.03
2023-02-17T06:01:08.537Z,101526.00
2023-02-17T06:03:35.433Z,101529.78
2023-02-17T06:06:02.312Z,101533.41
2023-02-17T06:08:29.284Z,101530.94
2023-02-17T06:10:56.297Z,101520.34
2023-02-17T06:13:23.252Z,101517.72
2023-02-17T06:15:50.152Z,101527.47
2023-02-17T06:18:17.446Z,101527.47
2023-02-17T06:20:44.320Z,101518.53
2023-02-17T06:23:11.929Z,101511.59
2023-02-17T06:25:38.915Z,101506.16
2023-02-17T06:28:05.791Z,101500.19
2023-02-17T06:30:33.346Z,101499.34
2023-02-17T06:33:00.235Z,101493.38
2023-02-17T06:35:27.334Z,101497.31
2023-02-17T06:37:54.244Z,101496.50
2023-02-17T06:40:21.142Z,101501.13
2023-02-17T06:42:48.027Z,101500.44
2023-02-17T06:45:14.951Z,101516.44
2023-02-17T06:47:41.924Z,101510.50
2023-02-17T06:50:09.257Z,101507.72
2023-02-17T06:52:36.115Z,101513.81
2023-02-17T06:55:03.477Z,101518.13
2023-02-17T06:57:30.358Z,101508.50
2023-02-17T06:59:57.387Z,101505.22
2023-02-17T07:02:24.349Z,101498.94
2023-02-17T07:04:51.324Z,101498.78
2023-02-17T07:07:18.180Z,101493.47
2023-02-17T07:09:45.032Z,101489.34
2023-02-17T07:12:12.080Z,101492.47
2023-02-17T07:14:38.937Z,101499.72
2023-02-17T07:17:05.820Z,101505.81
2023-02-17T07:19:32.887Z,101507.34
2023-02-17T07:21:59.799Z,101508.84
2023-02-17T07:24:26.876Z,101517.47
2023-02-17T07:26:56.449Z,101513.97
2023-02-17T07:29:23.428Z,101527.50
2023-02-17T07:31:50.383Z,101518.72
2023-02-17T07:34:17.290Z,101514.97
2023-02-17T07:36:44.207Z,101524.22
2023-02-17T07:39:11.159Z,101540.63
2023-02-17T07:41:38.084Z,101546.44
2023-02-17T07:44:10.303Z,101542.81
2023-02-17T07:46:37.484Z,101552.09
2023-02-17T07:49:04.563Z,101554.88
2023-02-17T07:51:31.432Z,101572.09
2023-02-17T07:53:58.425Z,101585.19
2023-02-17T07:56:26.047Z,101601.19
2023-02-17T07:58:53.122Z,101616.91
2023-02-17T08:01:21.712Z,101624.72
2023-02-17T08:03:48.993Z,101623.88
2023-02-17T08:06:18.924Z,101615.94
2023-02-17T08:08:49.325Z,101638.78
2023-02-17T08:11:20.085Z,101652.66
2023-02-17T08:13:47.049Z,101638.31
2023-02-17T08:16:14.008Z,101648.19
2023-02-17T08:18:41.057Z,101649.72
2023-02-17T08:21:08.331Z,101633.53
2023-02-17T08:23:35.585Z,101631.56
2023-02-17T08:26:02.500Z,101629.44
2023-02-17T08:28:29.414Z,101611.75
2023-02-17T08:30:56.683Z,101633.75
2023-02-17T08:33:23.972Z,101628.97
2023-02-17T08:35:51.209Z,101638.41
2023-02-17T08:38:18.185Z,101641.22
2023-02-17T08:40:45.165Z,101638.09
2023-02-17T08:43:12.218Z,101653.38
2023-02-17T08:45:39.243Z,101653.88
2023-02-17T08:48:06.419Z,101642.00
2023-02-17T08:50:34.022Z,101654.09
2023-02-17T08:53:00.997Z,101646.00
2023-02-17T08:55:30.438Z,101632.47
2023-02-17T08:58:00.640Z,101629.19
2023-02-17T09:00:27.823Z,101624.25
2023-02-17T09:02:54.697Z,101621.59
2023-02-17T09:05:21.881Z,101634.41
2023-02-17T09:07:48.875Z,101635.59
2023-02-17T09:10:16.218Z,101627.47
2023-02-17T09:12:43.166Z,101628.78
2023-02-17T09:15:10.197Z,101628.94
2023-02-17T09:17:40.978Z,101635.69
2023-02-17T09:20:19.518Z,101619.94
2023-02-17T09:22:51.562Z,101608.38
2023-02-17T09:25:19.390Z,101623.25
2023-02-17T09:27:46.335Z,101620.25
2023-02-17T09:30:13.799Z,101626.53
2023-02-17T09:32:42.469Z,101616.09
2023-02-17T09:35:12.655Z,101628.88
2023-02-17T09:37:39.763Z,101629.69
2023-02-17T09:40:07.271Z,101631.03
2023-02-17T09:42:36.541Z,101636.06
2023-02-17T09:45:06.485Z,101628.38
2023-02-17T09:47:37.635Z,101624.91
2023-02-17T09:50:07.325Z,101621.28
2023-02-17T09:52:36.288Z,101624.31
2023-02-17T09:55:04.486Z,101610.94
2023-02-17T09:57:34.952Z,101599.66
2023-02-17T10:00:08.527Z,101605.94
2023-02-17T10:02:40.417Z,101614.56
2023-02-17T10:05:09.536Z,101609.78
2023-02-17T10:07:40.239Z,101594.41
2023-02-17T10:10:11.497Z,101604.34
2023-02-17T10:12:41.638Z,101609.50
2023-02-17T10:15:13.425Z,101605.72
2023-02-17T10:17:44.482Z,101608.03
2023-02-17T10:20:13.895Z,101604.22
2023-02-17T10:22:43.162Z,101607.69
2023-02-17T10:25:13.392Z,101604.22
2023-02-17T10:27:43.119Z,101598.91
2023-02-17T10:30:13.175Z,101601.13
2023-02-17T10:32:43.320Z,101602.75
2023-02-17T10:35:13.501Z,101593.97
2023-02-17T10:37:40.953Z,101592.00
2023-02-17T10:40:12.431Z,101594.50
2023-02-17T10:42:39.770Z,101585.38
2023-02-17T10:45:11.442Z,101601.47
2023-02-17T10:47:39.410Z,101602.13
2023-02-17T10:50:08.813Z,101600.97
2023-02-17T10:52:38.767Z,101599.97
2023-02-17T10:55:22.429Z,101595.34
2023-02-17T10:57:54.154Z,101596.03
2023-02-17T11:00:21.352Z,101598.34
2023-02-17T11:02:49.480Z,101594.56
2023-02-17T11:05:19.459Z,101595.88
2023-02-17T11:07:46.439Z,101597.34
2023-02-17T11:10:16.521Z,101606.63
2023-02-17T11:12:44.047Z,101613.44
2023-02-17T11:15:13.980Z,101622.03
2023-02-17T11:17:41.411Z,101619.25
2023-02-17T11:20:27.734Z,101627.53
2023-02-17T11:22:57.849Z,101632.34
2023-02-17T11:25:27.437Z,101638.97
2023-02-17T11:27:55.444Z,101637.31
2023-02-17T11:30:23.064Z,101641.78
2023-02-17T11:32:50.570Z,101625.22
2023-02-17T11:35:20.879Z,101633.84
2023-02-17T11:37:47.817Z,101628.88
2023-02-17T11:40:26.084Z,101635.84
2023-02-17T11:42:56.568Z,101633.53
2023-02-17T11:45:24.215Z,101623.44
2023-02-17T11:47:51.728Z,101621.44
2023-02-17T11:50:35.391Z,101628.56
2023-02-17T11:53:10.325Z,101625.91
2023-02-17T11:55:40.261Z,101618.63
2023-02-17T11:58:10.228Z,101626.44
2023-02-17T12:00:37.760Z,101641.34
2023-02-17T12:03:07.879Z,101644.16
2023-02-17T12:05:36.343Z,101643.97
2023-02-17T12:08:04.813Z,101633.22
2023-02-17T12:10:34.810Z,101651.94
2023-02-17T12:13:04.984Z,101648.97
2023-02-17T12:15:40.458Z,101648.31
2023-02-17T12:18:07.924Z,101660.25
2023-02-17T12:20:35.338Z,101662.72
2023-02-17T12:23:03.618Z,101661.75
2023-02-17T12:25:33.785Z,101664.25
2023-02-17T12:28:03.887Z,101669.06
2023-02-17T12:30:34.172Z,101666.75
2023-02-17T12:33:01.667Z,101664.63
2023-02-17T12:35:31.622Z,101675.72
2023-02-17T12:38:02.292Z,101670.09
2023-02-17T12:40:32.650Z,101677.41
2023-02-17T12:43:02.069Z,101667.13
2023-02-17T12:45:32.088Z,101672.59
2023-02-17T12:48:03.207Z,101673.91
2023-02-17T12:50:33.305Z,101681.56
2023-02-17T12:53:02.753Z,101670.78
2023-02-17T12:55:37.664Z,101679.38
2023-02-17T12:58:08.364Z,101686.84
2023-02-17T13:00:39.361Z,101685.72
2023-02-17T13:03:06.906Z,101686.19
2023-02-17T13:05:34.244Z,101685.53
2023-02-17T13:08:05.080Z,101678.72
2023-02-17T13:10:34.137Z,101680.19
2023-02-17T13:13:03.570Z,101680.72
2023-02-17T13:15:31.018Z,101684.16
2023-02-17T13:18:01.740Z,101697.97
2023-02-17T13:20:38.691Z,101691.16
2023-02-17T13:23:07.326Z,101702.09
2023-02-17T13:25:37.495Z,101704.75
2023-02-17T13:28:17.417Z,101697.63
2023-02-17T13:30:45.694Z,101711.38
2023-02-17T13:33:15.739Z,101712.56
2023-02-17T13:35:42.725Z,101717.03
2023-02-17T13:38:10.460Z,101721.19
2023-02-17T13:40:38.934Z,101718.34
2023-02-17T13:43:08.928Z,101730.81
2023-02-17T13:45:39.048Z,101731.81
2023-02-17T13:48:09.079Z,101735.13
2023-02-17T13:50:38.340Z,101747.41
2023-02-17T13:53:08.526Z,101727.16
2023-02-17T13:55:35.584Z,101737.63
2023-02-17T13:58:03.045Z,101740.13
2023-02-17T14:00:31.569Z,101736.13
2023-02-17T14:02:59.806Z,101735.63
2023-02-17T14:05:29.353Z,101740.44
2023-02-17T14:07:59.535Z,101746.91
2023-02-17T14:10:27.436Z,101744.41
2023-02-17T14:12:55.402Z,101743.09
2023-02-17T14:15:24.247Z,101757.22
2023-02-17T14:17:51.223Z,101752.38
2023-02-17T14:20:21.221Z,101760.00
2023-02-17T14:22:59.162Z,101746.19
2023-02-17T14:25:31.430Z,101755.69
2023-02-17T14:27:58.427Z,101756.66
2023-02-17T14:30:29.986Z,101762.66
2023-02-17T14:33:00.212Z,101770.78
2023-02-17T14:35:27.160Z,101779.13
2023-02-17T14:37:54.325Z,101787.56
2023-02-17T14:40:24.561Z,101782.94
2023-02-17T14:42:51.529Z,101794.56
2023-02-17T14:45:19.219Z,101792.72
2023-02-17T14:47:46.688Z,101783.94
2023-02-17T14:50:14.153Z,101779.59
2023-02-17T14:52:42.987Z,101779.94
2023-02-17T14:55:15.547Z,101783.09
2023-02-17T14:57:42.919Z,101780.63
2023-02-17T15:00:12.147Z,101784.63
2023-02-17T15:02:39.168Z,101790.22
2023-02-17T15:05:06.469Z,101790.38
2023-02-17T15:07:33.385Z,101788.91
2023-02-17T15:10:00.490Z,101815.63
2023-02-17T15:12:28.361Z,101797.22
2023-02-17T15:14:56.001Z,101806.19
2023-02-17T15:17:22.958Z,101806.00
2023-02-17T15:19:50.020Z,101804.16
2023-02-17T15:22:17.006Z,101816.47
2023-02-17T15:24:44.003Z,101817.97
2023-02-17T15:27:14.348Z,101824.28
2023-02-17T15:29:41.275Z,101827.78
2023-02-17T15:32:16.011Z,101838.06
2023-02-17T15:34:43.338Z,101829.25
2023-02-17T15:37:10.777Z,101834.09
2023-02-17T15:39:37.802Z,101828.25
2023-02-17T15:42:07.423Z,101833.75
2023-02-17T15:44:37.654Z,101823.28
2023-02-17T15:47:04.816Z,101824.44
2023-02-17T15:49:31.881Z,101815.63
2023-02-17T15:51:58.809Z,101827.78
2023-02-17T15:54:25.782Z,101823.75
2023-02-17T15:56:53.293Z,101816.81
2023-02-17T15:59:22.749Z,101819.78
2023-02-17T16:01:51.045Z,101826.44
2023-02-17T16:04:18.649Z,101827.56
2023-02-17T16:06:45.593Z,101829.44
2023-02-17T16:09:12.654Z,101839.38
2023-02-17T16:11:42.727Z,101838.03
2023-02-17T16:14:14.776Z,101844.50
2023-02-17T16:16:41.807Z,101850.13
2023-02-17T16:19:12.094Z,101854.13
2023-02-17T16:21:39.045Z,101859.09
2023-02-17T16:24:06.290Z,101851.91
2023-02-17T16:26:35.448Z,101856.72
2023-02-17T16:29:03.591Z,101856.88
2023-02-17T16:31:32.736Z,101860.69
2023-02-17T16:34:00.674Z,101867.00
2023-02-17T16:36:30.513Z,101856.69
2023-02-17T16:38:57.450Z,101854.50
2023-02-17T16:41:24.443Z,101860.66
2023-02-17T16:43:51.342Z,101853.69
2023-02-17T16:46:20.890Z,101862.66
2023-02-17T16:48:48.038Z,101866.59
2023-02-17T16:51:15.088Z,101867.63
2023-02-17T16:53:42.059Z,101859.97
2023-02-17T16:56:12.087Z,101865.44
2023-02-17T16:58:40.746Z,101866.59
2023-02-17T17:01:12.818Z,101864.25
2023-02-17T17:03:41.449Z,101877.94
2023-02-17T17:06:11.569Z,101886.56
2023-02-17T17:08:38.526Z,101875.59
2023-02-17T17:11:05.650Z,101876.06
2023-02-17T17:13:37.486Z,101881.81
2023-02-17T17:16:04.963Z,101879.50
2023-02-17T17:18:32.150Z,101886.75
2023-02-17T17:20:59.193Z,101886.09
2023-02-17T17:23:26.288Z,101906.63
2023-02-17T17:25:53.446Z,101899.50
2023-02-17T17:28:20.700Z,101908.44
2023-02-17T17:30:47.999Z,101911.09
2023-02-17T17:33:15.168Z,101913.09
2023-02-17T17:35:42.421Z,101921.19
2023-02-17T17:38:13.459Z,101924.00
2023-02-17T17:40:43.621Z,101924.16
2023-02-17T17:43:10.560Z,101926.81
2023-02-17T17:45:37.731Z,101930.13
2023-02-17T17:48:05.435Z,101931.09
2023-02-17T17:50:32.510Z,101931.09
2023-02-17T17:52:59.449Z,101938.09
2023-02-17T17:55:26.521Z,101943.38
2023-02-17T17:57:53.946Z,101944.53
2023-02-17T18:00:21.310Z,101939.25
2023-02-17T18:02:48.292Z,101946.22
2023-02-17T18:05:15.350Z,101948.88
2023-02-17T18:07:43.379Z,101957.94
2023-02-17T18:10:12.122Z,101950.81
2023-02-17T18:12:40.845Z,101958.78
2023-02-17T18:15:08.176Z,101955.44
2023-02-17T18:17:36.406Z,101955.91
2023-02-17T18:20:03.987Z,101963.00
2023-02-17T18:22:30.926Z,101967.66
2023-02-17T18:25:00.936Z,101973.09
2023-02-17T18:27:28.227Z,101980.22
2023-02-17T18:29:56.504Z,101972.28
2023-02-17T18:32:24.788Z,101974.91
2023-02-17T18:34:51.850Z,101974.09
2023-02-17T18:37:18.876Z,101987.34
2023-02-17T18:39:45.928Z,101981.19
2023-02-17T18:42:12.908Z,101979.19
2023-02-17T18:44:40.025Z,101980.16
2023-02-17T18:47:06.983Z,101987.28
2023-02-17T18:49:33.987Z,101981.97
2023-02-17T18:52:01.096Z,101977.13
2023-02-17T18:54:28.038Z,101975.31
2023-02-17T18:56:55.040Z,101975.97
2023-02-17T18:59:22.157Z,101977.50
2023-02-17T19:01:49.230Z,101976.69
2023-02-17T19:04:16.398Z,101976.53
2023-02-17T19:06:43.543Z,101977.66
2023-02-17T19:09:11.111Z,101975.16
2023-02-17T19:11:38.275Z,101982.25
2023-02-17T19:14:05.333Z,101985.59
2023-02-17T19:16:32.622Z,101987.28
2023-02-17T19:19:01.132Z,101988.25
2023-02-17T19:21:28.303Z,101981.59
2023-02-17T19:23:55.346Z,101987.75
2023-02-17T19:26:23.026Z,101988.72
2023-02-17T19:28:50.052Z,101983.88
2023-02-17T19:31:21.852Z,101988.34
2023-02-17T19:33:49.103Z,101987.81
2023-02-17T19:36:17.729Z,101989.78
2023-02-17T19:38:45.191Z,101991.91
2023-02-17T19:41:13.261Z,101989.06
2023-02-17T19:43:40.872Z,101983.78
2023-02-17T19:46:12.813Z,101988.09
2023-02-17T19:48:39.962Z,101984.63
2023-02-17T19:51:08.037Z,101988.28
2023-02-17T19:53:35.262Z,101988.09
2023-02-17T19:56:05.725Z,101983.78
2023-02-17T19:58:32.974Z,101984.78
2023-02-17T20:01:03.169Z,101991.72
2023-02-17T20:03:30.117Z,101979.50
2023-02-17T20:05:57.277Z,101985.63
2023-02-17T20:08:24.198Z,101982.81
2023-02-17T20:10:51.338Z,101973.88
2023-02-17T20:13:18.381Z,101965.22
2023-02-17T20:15:45.471Z,101953.66
2023-02-17T20:18:12.419Z,101960.78
2023-02-17T20:20:39.386Z,101965.09
2023-02-17T20:23:07.654Z,101965.22
2023-02-17T20:25:34.607Z,101982.13
2023-02-17T20:28:01.769Z,101986.75
2023-02-17T20:30:28.951Z,101980.22
2023-02-17T20:32:55.982Z,101982.03
2023-02-17T20:35:23.177Z,101974.78
2023-02-17T20:37:50.227Z,101964.06
2023-02-17T20:40:17.288Z,101960.38
2023-02-17T20:42:44.462Z,101967.69
2023-02-17T20:45:11.384Z,101952.75
2023-02-17T20:47:38.372Z,101957.75
2023-02-17T20:50:09.591Z,101957.09
2023-02-17T20:52:36.772Z,101966.16
2023-02-17T20:55:03.823Z,101968.78
2023-02-17T20:57:31.567Z,101973.25
2023-02-17T20:59:58.838Z,101974.94
2023-02-17T21:02:25.918Z,101969.34
2023-02-17T21:04:52.955Z,101963.34
2023-02-17T21:07:20.126Z,101962.53
2023-02-17T21:09:47.896Z,101965.03
2023-02-17T21:12:15.083Z,101967.38
2023-02-17T21:14:42.046Z,101962.22
2023-02-17T21:17:09.563Z,101953.28
2023-02-17T21:19:36.668Z,101964.19
2023-02-17T21:22:04.179Z,101962.66
2023-02-17T21:24:31.276Z,101954.88
2023-02-17T21:26:58.607Z,101953.34
2023-02-17T21:29:25.694Z,101953.22
2023-02-17T21:31:53.548Z,101955.72
2023-02-17T21:34:20.928Z,101962.97
2023-02-17T21:36:48.027Z,101964.09
2023-02-17T21:39:15.220Z,101958.81
2023-02-17T21:41:42.384Z,101957.31
2023-02-17T21:44:15.187Z,101955.63
2023-02-17T21:46:43.678Z,101960.78
2023-02-17T21:49:11.363Z,101963.97
2023-02-17T21:51:39.485Z,101961.75
2023-02-17T21:54:07.499Z,101950.31
2023-02-17T21:56:34.544Z,101954.78
2023-02-17T21:59:01.635Z,101955.94
2023-02-17T22:01:28.832Z,101956.91
2023-02-17T22:03:56.165Z,101959.72
2023-02-17T22:06:25.093Z,101949.13
2023-02-17T22:08:52.289Z,101952.59
2023-02-17T22:11:21.601Z,101948.28
2023-02-17T22:13:49.116Z,101938.69
2023-02-17T22:16:16.404Z,101932.56
2023-02-17T22:18:43.615Z,101930.75
2023-02-17T22:21:11.420Z,101925.22
2023-02-17T22:23:38.645Z,101931.47
2023-02-17T22:26:07.376Z,101924.09
2023-02-17T22:28:34.761Z,101917.59
2023-02-17T22:31:02.086Z,101911.06
2023-02-17T22:33:29.339Z,101906.78
2023-02-17T22:35:59.828Z,101905.94
2023-02-17T22:38:26.936Z,101904.28
2023-02-17T22:40:54.028Z,101901.63
2023-02-17T22:43:21.129Z,101903.13
2023-02-17T22:45:48.341Z,101901.31
2023-02-17T22:48:15.347Z,101888.25
2023-02-17T22:50:42.376Z,101885.59
2023-02-17T22:53:09.363Z,101886.41
2023-02-17T22:55:36.327Z,101890.72
2023-02-17T22:58:03.357Z,101885.75
2023-02-17T23:00:30.396Z,101893.00
2023-02-17T23:02:57.526Z,101891.88
2023-02-17T23:05:24.816Z,101887.41
2023-02-17T23:07:53.112Z,101882.25
2023-02-17T23:10:20.866Z,101884.91
2023-02-17T23:12:47.907Z,101889.06
2023-02-17T23:15:15.009Z,101876.97
2023-02-17T23:17:45.010Z,101883.94
2023-02-17T23:20:12.107Z,101874.91
2023-02-17T23:22:39.199Z,101867.28
2023-02-17T23:25:06.372Z,101860.19
2023-02-17T23:27:33.410Z,101864.06
2023-02-17T23:30:01.026Z,101859.94
2023-02-17T23:32:28.021Z,101869.41
2023-02-17T23:34:55.159Z,101864.44
2023-02-17T23:37:22.212Z,101860.13
2023-02-17T23:39:49.237Z,101869.56
2023-02-17T23:42:16.361Z,101869.41
2023-02-17T23:44:43.394Z,101860.50
2023-02-17T23:47:10.392Z,101854.38
2023-02-17T23:49:37.364Z,101855.19
2023-02-17T23:52:04.628Z,101842.78
2023-02-17T23:54:31.626Z,101843.31
2023-02-17T23:56:58.688Z,101838.03
2023-02-17T23:59:25.880Z,101852.78
